sensor_id;sensor_type;location;lat;lon;timestamp;P1;durP1;ratioP1;P2;durP2;ratioP2
23310;SDS011;11828;51.508;18.118;2023-02-21T00:02:21;215.63;;;79.72;;
23310;SDS011;11828;51.508;18.118;2023-02-21T00:05:06;217.40;;;80.78;;
23310;SDS011;11828;51.508;18.118;2023-02-21T00:07:51;221.13;;;85.97;;
23310;SDS011;11828;51.508;18.118;2023-02-21T00:10:36;218.90;;;76.65;;
23310;SDS011;11828;51.508;18.118;2023-02-21T00:13:20;218.35;;;81.72;;
23310;SDS011;11828;51.508;18.118;2023-02-21T00:16:05;218.60;;;87.13;;
23310;SDS011;11828;51.508;18.118;2023-02-21T00:18:50;226.15;;;88.95;;
23310;SDS011;11828;51.508;18.118;2023-02-21T00:21:34;206.15;;;80.40;;
23310;SDS011;11828;51.508;18.118;2023-02-21T00:24:19;217.55;;;80.20;;
23310;SDS011;11828;51.508;18.118;2023-02-21T00:27:04;218.98;;;83.05;;
23310;SDS011;11828;51.508;18.118;2023-02-21T00:29:49;218.43;;;79.18;;
23310;SDS011;11828;51.508;18.118;2023-02-21T00:32:35;219.07;;;79.43;;
23310;SDS011;11828;51.508;18.118;2023-02-21T00:35:19;218.45;;;78.78;;
23310;SDS011;11828;51.508;18.118;2023-02-21T00:38:04;224.00;;;79.88;;
23310;SDS011;11828;51.508;18.118;2023-02-21T00:40:48;214.27;;;79.80;;
23310;SDS011;11828;51.508;18.118;2023-02-21T00:43:34;228.65;;;87.97;;
23310;SDS011;11828;51.508;18.118;2023-02-21T00:46:19;224.90;;;81.07;;
23310;SDS011;11828;51.508;18.118;2023-02-21T00:49:05;213.23;;;81.25;;
23310;SDS011;11828;51.508;18.118;2023-02-21T00:51:50;216.38;;;81.85;;
23310;SDS011;11828;51.508;18.118;2023-02-21T00:54:35;220.07;;;84.55;;
23310;SDS011;11828;51.508;18.118;2023-02-21T00:57:20;240.55;;;86.28;;
23310;SDS011;11828;51.508;18.118;2023-02-21T01:00:06;215.68;;;78.60;;
23310;SDS011;11828;51.508;18.118;2023-02-21T01:02:57;216.23;;;79.53;;
23310;SDS011;11828;51.508;18.118;2023-02-21T01:05:42;220.95;;;80.25;;
23310;SDS011;11828;51.508;18.118;2023-02-21T01:08:26;219.50;;;81.68;;
23310;SDS011;11828;51.508;18.118;2023-02-21T01:11:15;220.30;;;79.68;;
23310;SDS011;11828;51.508;18.118;2023-02-21T01:14:02;221.70;;;84.45;;
23310;SDS011;11828;51.508;18.118;2023-02-21T01:16:47;222.90;;;79.30;;
23310;SDS011;11828;51.508;18.118;2023-02-21T01:19:32;221.40;;;83.82;;
23310;SDS011;11828;51.508;18.118;2023-02-21T01:22:17;215.27;;;80.20;;
23310;SDS011;11828;51.508;18.118;2023-02-21T01:25:03;209.02;;;72.57;;
23310;SDS011;11828;51.508;18.118;2023-02-21T01:27:49;214.75;;;81.20;;
23310;SDS011;11828;51.508;18.118;2023-02-21T01:30:37;204.35;;;83.15;;
23310;SDS011;11828;51.508;18.118;2023-02-21T01:33:21;213.18;;;83.50;;
23310;SDS011;11828;51.508;18.118;2023-02-21T01:36:06;213.73;;;87.05;;
23310;SDS011;11828;51.508;18.118;2023-02-21T01:38:52;208.98;;;85.78;;
23310;SDS011;11828;51.508;18.118;2023-02-21T01:41:37;165.55;;;78.38;;
23310;SDS011;11828;51.508;18.118;2023-02-21T01:47:28;195.95;;;79.28;;
23310;SDS011;11828;51.508;18.118;2023-02-21T01:50:25;191.10;;;81.00;;
23310;SDS011;11828;51.508;18.118;2023-02-21T01:53:17;198.48;;;79.80;;
23310;SDS011;11828;51.508;18.118;2023-02-21T01:56:06;22.10;;;15.80;;
23310;SDS011;11828;51.508;18.118;2023-02-21T01:58:53;18.33;;;8.50;;
23310;SDS011;11828;51.508;18.118;2023-02-21T02:01:56;18.25;;;5.90;;
23310;SDS011;11828;51.508;18.118;2023-02-21T02:04:48;22.38;;;11.00;;
23310;SDS011;11828;51.508;18.118;2023-02-21T02:07:34;24.23;;;21.15;;
23310;SDS011;11828;51.508;18.118;2023-02-21T02:10:20;33.97;;;29.52;;
23310;SDS011;11828;51.508;18.118;2023-02-21T02:27:17;220.40;;;80.35;;
23310;SDS011;11828;51.508;18.118;2023-02-21T02:38:35;220.32;;;80.18;;
23310;SDS011;11828;51.508;18.118;2023-02-21T02:41:26;228.00;;;84.35;;
23310;SDS011;11828;51.508;18.118;2023-02-21T02:44:37;217.70;;;80.10;;
23310;SDS011;11828;51.508;18.118;2023-02-21T02:47:07;221.45;;;85.25;;
23310;SDS011;11828;51.508;18.118;2023-02-21T02:49:41;223.70;;;88.22;;
23310;SDS011;11828;51.508;18.118;2023-02-21T02:52:09;219.15;;;79.15;;
23310;SDS011;11828;51.508;18.118;2023-02-21T02:54:35;220.32;;;80.03;;
23310;SDS011;11828;51.508;18.118;2023-02-21T02:57:02;222.48;;;76.65;;
23310;SDS011;11828;51.508;18.118;2023-02-21T02:59:34;220.27;;;81.65;;
23310;SDS011;11828;51.508;18.118;2023-02-21T03:05:12;215.45;;;81.45;;
23310;SDS011;11828;51.508;18.118;2023-02-21T03:11:13;219.20;;;78.68;;
23310;SDS011;11828;51.508;18.118;2023-02-21T03:16:28;224.52;;;75.55;;
23310;SDS011;11828;51.508;18.118;2023-02-21T03:24:36;224.00;;;80.35;;
23310;SDS011;11828;51.508;18.118;2023-02-21T03:27:05;229.85;;;81.93;;
23310;SDS011;11828;51.508;18.118;2023-02-21T03:29:33;225.18;;;80.22;;
23310;SDS011;11828;51.508;18.118;2023-02-21T03:32:02;218.73;;;79.75;;
23310;SDS011;11828;51.508;18.118;2023-02-21T03:34:36;220.95;;;81.22;;
23310;SDS011;11828;51.508;18.118;2023-02-21T03:37:08;233.55;;;82.03;;
23310;SDS011;11828;51.508;18.118;2023-02-21T03:39:44;222.05;;;83.00;;
23310;SDS011;11828;51.508;18.118;2023-02-21T03:42:10;225.60;;;82.65;;
23310;SDS011;11828;51.508;18.118;2023-02-21T03:44:36;218.52;;;72.40;;
23310;SDS011;11828;51.508;18.118;2023-02-21T03:47:02;222.77;;;80.45;;
23310;SDS011;11828;51.508;18.118;2023-02-21T03:49:28;225.45;;;79.85;;
23310;SDS011;11828;51.508;18.118;2023-02-21T03:51:54;234.10;;;76.38;;
23310;SDS011;11828;51.508;18.118;2023-02-21T03:54:21;223.35;;;82.90;;
23310;SDS011;11828;51.508;18.118;2023-02-21T03:56:47;220.80;;;81.78;;
23310;SDS011;11828;51.508;18.118;2023-02-21T03:59:13;245.18;;;88.65;;
23310;SDS011;11828;51.508;18.118;2023-02-21T04:01:39;228.30;;;92.35;;
23310;SDS011;11828;51.508;18.118;2023-02-21T04:04:05;216.80;;;76.88;;
23310;SDS011;11828;51.508;18.118;2023-02-21T04:06:31;216.82;;;77.43;;
23310;SDS011;11828;51.508;18.118;2023-02-21T04:08:57;222.10;;;79.13;;
23310;SDS011;11828;51.508;18.118;2023-02-21T04:11:24;236.38;;;81.80;;
23310;SDS011;11828;51.508;18.118;2023-02-21T04:13:50;222.07;;;80.93;;
23310;SDS011;11828;51.508;18.118;2023-02-21T04:16:16;224.85;;;85.22;;
23310;SDS011;11828;51.508;18.118;2023-02-21T04:18:42;221.57;;;83.78;;
23310;SDS011;11828;51.508;18.118;2023-02-21T04:21:08;223.88;;;82.60;;
23310;SDS011;11828;51.508;18.118;2023-02-21T04:23:34;222.30;;;78.38;;
23310;SDS011;11828;51.508;18.118;2023-02-21T04:26:00;226.75;;;82.05;;
23310;SDS011;11828;51.508;18.118;2023-02-21T04:28:27;217.85;;;79.68;;
23310;SDS011;11828;51.508;18.118;2023-02-21T04:30:53;222.77;;;84.25;;
23310;SDS011;11828;51.508;18.118;2023-02-21T04:33:19;223.77;;;80.50;;
23310;SDS011;11828;51.508;18.118;2023-02-21T04:35:45;219.77;;;81.18;;
23310;SDS011;11828;51.508;18.118;2023-02-21T04:38:13;220.93;;;78.50;;
23310;SDS011;11828;51.508;18.118;2023-02-21T04:40:39;225.27;;;84.00;;
23310;SDS011;11828;51.508;18.118;2023-02-21T04:43:05;225.15;;;84.72;;
23310;SDS011;11828;51.508;18.118;2023-02-21T04:45:31;219.07;;;72.35;;
23310;SDS011;11828;51.508;18.118;2023-02-21T04:47:58;218.55;;;76.28;;
23310;SDS011;11828;51.508;18.118;2023-02-21T04:50:24;215.00;;;73.05;;
23310;SDS011;11828;51.508;18.118;2023-02-21T04:52:50;213.52;;;73.07;;
23310;SDS011;11828;51.508;18.118;2023-02-21T04:55:16;218.77;;;78.03;;
23310;SDS011;11828;51.508;18.118;2023-02-21T04:57:42;217.27;;;82.13;;
23310;SDS011;11828;51.508;18.118;2023-02-21T05:00:08;235.70;;;86.88;;
23310;SDS011;11828;51.508;18.118;2023-02-21T05:02:36;217.50;;;78.50;;
23310;SDS011;11828;51.508;18.118;2023-02-21T05:05:02;215.75;;;78.80;;
23310;SDS011;11828;51.508;18.118;2023-02-21T05:07:28;219.15;;;81.30;;
23310;SDS011;11828;51.508;18.118;2023-02-21T05:09:54;218.32;;;75.70;;
23310;SDS011;11828;51.508;18.118;2023-02-21T05:12:21;229.13;;;80.90;;
23310;SDS011;11828;51.508;18.118;2023-02-21T05:14:47;219.48;;;80.13;;
23310;SDS011;11828;51.508;18.118;2023-02-21T05:17:13;219.73;;;84.50;;
23310;SDS011;11828;51.508;18.118;2023-02-21T05:19:39;218.45;;;85.07;;
23310;SDS011;11828;51.508;18.118;2023-02-21T05:22:05;223.23;;;87.93;;
23310;SDS011;11828;51.508;18.118;2023-02-21T05:24:32;219.65;;;82.80;;
23310;SDS011;11828;51.508;18.118;2023-02-21T05:26:59;214.73;;;79.90;;
23310;SDS011;11828;51.508;18.118;2023-02-21T05:29:25;215.05;;;73.90;;
23310;SDS011;11828;51.508;18.118;2023-02-21T05:31:52;218.27;;;81.50;;
23310;SDS011;11828;51.508;18.118;2023-02-21T05:34:18;214.63;;;74.15;;
23310;SDS011;11828;51.508;18.118;2023-02-21T05:36:44;225.05;;;85.57;;
23310;SDS011;11828;51.508;18.118;2023-02-21T05:39:11;238.52;;;81.65;;
23310;SDS011;11828;51.508;18.118;2023-02-21T05:41:37;221.77;;;83.35;;
23310;SDS011;11828;51.508;18.118;2023-02-21T05:44:03;220.77;;;87.82;;
23310;SDS011;11828;51.508;18.118;2023-02-21T05:46:31;209.65;;;75.07;;
23310;SDS011;11828;51.508;18.118;2023-02-21T05:49:00;218.23;;;79.85;;
23310;SDS011;11828;51.508;18.118;2023-02-21T05:51:35;220.68;;;78.20;;
23310;SDS011;11828;51.508;18.118;2023-02-21T05:54:05;236.73;;;80.53;;
23310;SDS011;11828;51.508;18.118;2023-02-21T05:56:36;221.85;;;84.72;;
23310;SDS011;11828;51.508;18.118;2023-02-21T05:59:04;226.43;;;78.97;;
23310;SDS011;11828;51.508;18.118;2023-02-21T06:01:30;222.38;;;85.68;;
23310;SDS011;11828;51.508;18.118;2023-02-21T06:03:56;223.70;;;83.25;;
23310;SDS011;11828;51.508;18.118;2023-02-21T06:06:24;218.98;;;86.45;;
23310;SDS011;11828;51.508;18.118;2023-02-21T06:08:50;212.52;;;84.85;;
23310;SDS011;11828;51.508;18.118;2023-02-21T06:11:23;214.48;;;78.82;;
23310;SDS011;11828;51.508;18.118;2023-02-21T06:13:57;215.70;;;77.13;;
23310;SDS011;11828;51.508;18.118;2023-02-21T06:16:31;208.07;;;79.40;;
23310;SDS011;11828;51.508;18.118;2023-02-21T06:18:58;208.35;;;77.00;;
23310;SDS011;11828;51.508;18.118;2023-02-21T06:21:25;214.27;;;83.55;;
23310;SDS011;11828;51.508;18.118;2023-02-21T06:23:51;204.55;;;72.32;;
23310;SDS011;11828;51.508;18.118;2023-02-21T06:26:18;218.27;;;85.95;;
23310;SDS011;11828;51.508;18.118;2023-02-21T06:28:46;207.75;;;76.25;;
23310;SDS011;11828;51.508;18.118;2023-02-21T06:31:12;218.82;;;82.10;;
23310;SDS011;11828;51.508;18.118;2023-02-21T06:33:38;217.13;;;80.75;;
23310;SDS011;11828;51.508;18.118;2023-02-21T06:36:06;206.88;;;75.28;;
23310;SDS011;11828;51.508;18.118;2023-02-21T06:38:37;214.00;;;74.10;;
23310;SDS011;11828;51.508;18.118;2023-02-21T06:41:06;213.88;;;79.10;;
23310;SDS011;11828;51.508;18.118;2023-02-21T06:43:33;218.63;;;79.97;;
23310;SDS011;11828;51.508;18.118;2023-02-21T06:46:01;213.25;;;80.00;;
23310;SDS011;11828;51.508;18.118;2023-02-21T06:48:28;217.93;;;80.85;;
23310;SDS011;11828;51.508;18.118;2023-02-21T06:50:55;223.82;;;85.40;;
23310;SDS011;11828;51.508;18.118;2023-02-21T06:53:21;219.90;;;83.28;;
23310;SDS011;11828;51.508;18.118;2023-02-21T06:55:48;235.93;;;97.47;;
23310;SDS011;11828;51.508;18.118;2023-02-21T06:58:14;238.80;;;90.07;;
23310;SDS011;11828;51.508;18.118;2023-02-21T07:00:40;220.43;;;83.35;;
23310;SDS011;11828;51.508;18.118;2023-02-21T07:03:06;234.98;;;87.47;;
23310;SDS011;11828;51.508;18.118;2023-02-21T07:05:32;229.02;;;85.20;;
23310;SDS011;11828;51.508;18.118;2023-02-21T07:08:00;224.82;;;83.28;;
23310;SDS011;11828;51.508;18.118;2023-02-21T07:10:27;229.43;;;80.40;;
23310;SDS011;11828;51.508;18.118;2023-02-21T07:12:53;232.00;;;91.57;;
23310;SDS011;11828;51.508;18.118;2023-02-21T07:15:20;221.40;;;81.07;;
23310;SDS011;11828;51.508;18.118;2023-02-21T07:17:46;224.38;;;81.15;;
23310;SDS011;11828;51.508;18.118;2023-02-21T07:20:12;223.02;;;78.78;;
23310;SDS011;11828;51.508;18.118;2023-02-21T07:22:38;233.23;;;83.95;;
23310;SDS011;11828;51.508;18.118;2023-02-21T07:25:05;222.80;;;78.75;;
23310;SDS011;11828;51.508;18.118;2023-02-21T07:27:31;231.90;;;82.43;;
23310;SDS011;11828;51.508;18.118;2023-02-21T07:29:57;232.02;;;86.95;;
23310;SDS011;11828;51.508;18.118;2023-02-21T07:32:23;227.50;;;82.78;;
23310;SDS011;11828;51.508;18.118;2023-02-21T07:34:49;233.75;;;84.65;;
23310;SDS011;11828;51.508;18.118;2023-02-21T07:37:15;231.23;;;80.68;;
23310;SDS011;11828;51.508;18.118;2023-02-21T07:39:42;221.05;;;81.35;;
23310;SDS011;11828;51.508;18.118;2023-02-21T07:42:07;220.02;;;78.55;;
23310;SDS011;11828;51.508;18.118;2023-02-21T07:44:34;223.50;;;80.68;;
23310;SDS011;11828;51.508;18.118;2023-02-21T07:47:00;228.25;;;81.85;;
23310;SDS011;11828;51.508;18.118;2023-02-21T07:49:26;232.32;;;88.95;;
23310;SDS011;11828;51.508;18.118;2023-02-21T07:51:52;223.80;;;77.97;;
23310;SDS011;11828;51.508;18.118;2023-02-21T07:54:19;227.70;;;83.68;;
23310;SDS011;11828;51.508;18.118;2023-02-21T07:56:46;226.68;;;79.45;;
23310;SDS011;11828;51.508;18.118;2023-02-21T07:59:14;220.88;;;81.43;;
23310;SDS011;11828;51.508;18.118;2023-02-21T08:01:40;228.25;;;76.20;;
23310;SDS011;11828;51.508;18.118;2023-02-21T08:04:06;216.13;;;77.60;;
23310;SDS011;11828;51.508;18.118;2023-02-21T08:06:33;236.77;;;85.20;;
23310;SDS011;11828;51.508;18.118;2023-02-21T08:09:00;241.82;;;80.50;;
23310;SDS011;11828;51.508;18.118;2023-02-21T08:11:26;223.55;;;83.75;;
23310;SDS011;11828;51.508;18.118;2023-02-21T08:13:53;237.05;;;86.05;;
23310;SDS011;11828;51.508;18.118;2023-02-21T08:16:19;225.13;;;82.10;;
23310;SDS011;11828;51.508;18.118;2023-02-21T08:18:48;230.98;;;88.63;;
23310;SDS011;11828;51.508;18.118;2023-02-21T08:21:15;224.73;;;77.85;;
23310;SDS011;11828;51.508;18.118;2023-02-21T08:23:41;221.18;;;76.65;;
23310;SDS011;11828;51.508;18.118;2023-02-21T08:26:07;231.10;;;83.45;;
23310;SDS011;11828;51.508;18.118;2023-02-21T08:28:33;218.00;;;77.45;;
23310;SDS011;11828;51.508;18.118;2023-02-21T08:31:01;226.30;;;81.93;;
23310;SDS011;11828;51.508;18.118;2023-02-21T08:33:28;221.27;;;81.20;;
23310;SDS011;11828;51.508;18.118;2023-02-21T08:35:54;222.63;;;78.03;;
23310;SDS011;11828;51.508;18.118;2023-02-21T08:38:21;224.02;;;83.88;;
23310;SDS011;11828;51.508;18.118;2023-02-21T08:40:47;227.23;;;82.57;;
23310;SDS011;11828;51.508;18.118;2023-02-21T08:43:13;226.45;;;84.07;;
23310;SDS011;11828;51.508;18.118;2023-02-21T08:45:39;222.68;;;83.20;;
23310;SDS011;11828;51.508;18.118;2023-02-21T08:48:05;222.38;;;80.35;;
23310;SDS011;11828;51.508;18.118;2023-02-21T08:50:31;219.10;;;83.90;;
23310;SDS011;11828;51.508;18.118;2023-02-21T08:52:58;217.73;;;84.35;;
23310;SDS011;11828;51.508;18.118;2023-02-21T08:55:24;220.38;;;81.63;;
23310;SDS011;11828;51.508;18.118;2023-02-21T08:57:51;224.13;;;79.80;;
23310;SDS011;11828;51.508;18.118;2023-02-21T09:00:18;222.85;;;81.25;;
23310;SDS011;11828;51.508;18.118;2023-02-21T09:02:48;219.75;;;77.53;;
23310;SDS011;11828;51.508;18.118;2023-02-21T09:05:17;224.05;;;86.97;;
23310;SDS011;11828;51.508;18.118;2023-02-21T09:07:51;222.07;;;80.15;;
23310;SDS011;11828;51.508;18.118;2023-02-21T09:10:30;225.65;;;82.60;;
23310;SDS011;11828;51.508;18.118;2023-02-21T09:13:00;218.88;;;78.38;;
23310;SDS011;11828;51.508;18.118;2023-02-21T09:15:28;220.02;;;80.75;;
23310;SDS011;11828;51.508;18.118;2023-02-21T09:17:54;218.63;;;77.97;;
23310;SDS011;11828;51.508;18.118;2023-02-21T09:20:24;219.38;;;79.47;;
23310;SDS011;11828;51.508;18.118;2023-02-21T09:22:51;225.32;;;78.57;;
23310;SDS011;11828;51.508;18.118;2023-02-21T09:25:19;230.23;;;76.97;;
23310;SDS011;11828;51.508;18.118;2023-02-21T09:27:49;233.23;;;76.63;;
23310;SDS011;11828;51.508;18.118;2023-02-21T09:30:17;260.65;;;84.60;;
23310;SDS011;11828;51.508;18.118;2023-02-21T09:32:48;244.13;;;82.22;;
23310;SDS011;11828;51.508;18.118;2023-02-21T09:35:15;246.95;;;80.05;;
23310;SDS011;11828;51.508;18.118;2023-02-21T09:37:43;252.18;;;83.75;;
23310;SDS011;11828;51.508;18.118;2023-02-21T09:40:34;256.13;;;88.55;;
23310;SDS011;11828;51.508;18.118;2023-02-21T09:43:32;277.45;;;87.15;;
23310;SDS011;11828;51.508;18.118;2023-02-21T09:46:04;249.32;;;87.32;;
23310;SDS011;11828;51.508;18.118;2023-02-21T09:48:45;247.02;;;84.93;;
23310;SDS011;11828;51.508;18.118;2023-02-21T09:51:12;250.02;;;84.20;;
23310;SDS011;11828;51.508;18.118;2023-02-21T09:53:41;244.75;;;84.72;;
23310;SDS011;11828;51.508;18.118;2023-02-21T09:56:12;245.40;;;83.43;;
23310;SDS011;11828;51.508;18.118;2023-02-21T09:58:55;246.15;;;82.70;;
23310;SDS011;11828;51.508;18.118;2023-02-21T10:07:10;239.68;;;81.00;;
23310;SDS011;11828;51.508;18.118;2023-02-21T10:09:50;239.60;;;78.88;;
23310;SDS011;11828;51.508;18.118;2023-02-21T10:13:03;238.98;;;78.07;;
23310;SDS011;11828;51.508;18.118;2023-02-21T10:19:02;242.77;;;79.80;;
23310;SDS011;11828;51.508;18.118;2023-02-21T10:21:39;231.13;;;76.47;;
23310;SDS011;11828;51.508;18.118;2023-02-21T10:24:19;243.00;;;80.28;;
23310;SDS011;11828;51.508;18.118;2023-02-21T10:32:26;231.75;;;76.45;;
23310;SDS011;11828;51.508;18.118;2023-02-21T10:34:52;223.15;;;75.78;;
23310;SDS011;11828;51.508;18.118;2023-02-21T10:43:00;232.40;;;77.97;;
23310;SDS011;11828;51.508;18.118;2023-02-21T10:48:36;232.98;;;77.57;;
23310;SDS011;11828;51.508;18.118;2023-02-21T10:53:30;232.73;;;78.13;;
23310;SDS011;11828;51.508;18.118;2023-02-21T10:59:00;238.77;;;79.07;;
23310;SDS011;11828;51.508;18.118;2023-02-21T11:01:50;233.18;;;79.07;;
23310;SDS011;11828;51.508;18.118;2023-02-21T11:06:48;234.68;;;79.38;;
23310;SDS011;11828;51.508;18.118;2023-02-21T11:14:43;242.23;;;81.05;;
23310;SDS011;11828;51.508;18.118;2023-02-21T11:17:29;231.68;;;77.90;;
23310;SDS011;11828;51.508;18.118;2023-02-21T11:19:58;238.10;;;79.47;;
23310;SDS011;11828;51.508;18.118;2023-02-21T11:22:45;250.00;;;77.93;;
23310;SDS011;11828;51.508;18.118;2023-02-21T11:27:56;229.32;;;77.78;;
23310;SDS011;11828;51.508;18.118;2023-02-21T11:30:31;119.30;;;51.42;;
23310;SDS011;11828;51.508;18.118;2023-02-21T11:33:28;256.70;;;82.10;;
23310;SDS011;11828;51.508;18.118;2023-02-21T11:36:11;240.18;;;80.15;;
23310;SDS011;11828;51.508;18.118;2023-02-21T11:38:43;236.30;;;77.25;;
23310;SDS011;11828;51.508;18.118;2023-02-21T11:44:33;233.65;;;79.13;;
23310;SDS011;11828;51.508;18.118;2023-02-21T11:47:11;237.20;;;78.47;;
23310;SDS011;11828;51.508;18.118;2023-02-21T11:52:35;235.93;;;79.22;;
23310;SDS011;11828;51.508;18.118;2023-02-21T11:55:03;248.93;;;78.82;;
23310;SDS011;11828;51.508;18.118;2023-02-21T12:00:56;245.88;;;97.43;;
23310;SDS011;11828;51.508;18.118;2023-02-21T12:07:16;238.23;;;81.40;;
23310;SDS011;11828;51.508;18.118;2023-02-21T12:10:02;243.68;;;81.57;;
23310;SDS011;11828;51.508;18.118;2023-02-21T12:13:25;238.43;;;81.40;;
23310;SDS011;11828;51.508;18.118;2023-02-21T12:18:35;241.30;;;82.85;;
23310;SDS011;11828;51.508;18.118;2023-02-21T12:26:53;236.43;;;84.45;;
23310;SDS011;11828;51.508;18.118;2023-02-21T12:32:49;248.90;;;89.05;;
23310;SDS011;11828;51.508;18.118;2023-02-21T12:38:52;254.98;;;90.95;;
23310;SDS011;11828;51.508;18.118;2023-02-21T12:41:32;249.60;;;93.28;;
23310;SDS011;11828;51.508;18.118;2023-02-21T12:44:30;253.68;;;93.65;;
23310;SDS011;11828;51.508;18.118;2023-02-21T12:47:19;259.35;;;97.40;;
23310;SDS011;11828;51.508;18.118;2023-02-21T12:50:31;255.48;;;93.43;;
23310;SDS011;11828;51.508;18.118;2023-02-21T12:55:50;263.10;;;99.18;;
23310;SDS011;11828;51.508;18.118;2023-02-21T12:58:24;230.25;;;90.05;;
23310;SDS011;11828;51.508;18.118;2023-02-21T13:01:01;235.27;;;91.35;;
23310;SDS011;11828;51.508;18.118;2023-02-21T13:06:50;245.63;;;91.68;;
23310;SDS011;11828;51.508;18.118;2023-02-21T13:10:14;230.93;;;85.90;;
23310;SDS011;11828;51.508;18.118;2023-02-21T13:12:54;236.40;;;84.88;;
23310;SDS011;11828;51.508;18.118;2023-02-21T13:15:28;242.02;;;85.88;;
23310;SDS011;11828;51.508;18.118;2023-02-21T13:20:35;230.52;;;85.35;;
23310;SDS011;11828;51.508;18.118;2023-02-21T13:32:58;244.48;;;85.28;;
23310;SDS011;11828;51.508;18.118;2023-02-21T13:35:33;236.32;;;80.55;;
23310;SDS011;11828;51.508;18.118;2023-02-21T13:38:04;245.27;;;81.22;;
23310;SDS011;11828;51.508;18.118;2023-02-21T13:40:34;238.13;;;81.97;;
23310;SDS011;11828;51.508;18.118;2023-02-21T13:57:41;248.85;;;88.57;;
23310;SDS011;11828;51.508;18.118;2023-02-21T14:08:31;261.33;;;89.72;;
23310;SDS011;11828;51.508;18.118;2023-02-21T14:13:39;265.92;;;91.20;;
23310;SDS011;11828;51.508;18.118;2023-02-21T14:16:25;259.27;;;91.93;;
23310;SDS011;11828;51.508;18.118;2023-02-21T14:24:50;258.35;;;88.30;;
23310;SDS011;11828;51.508;18.118;2023-02-21T14:27:32;260.65;;;84.60;;
23310;SDS011;11828;51.508;18.118;2023-02-21T14:30:44;254.32;;;83.57;;
23310;SDS011;11828;51.508;18.118;2023-02-21T14:32:56;259.45;;;86.43;;
23310;SDS011;11828;51.508;18.118;2023-02-21T14:36:03;255.05;;;90.30;;
23310;SDS011;11828;51.508;18.118;2023-02-21T14:38:36;255.32;;;84.10;;
23310;SDS011;11828;51.508;18.118;2023-02-21T14:46:41;257.40;;;86.80;;
23310;SDS011;11828;51.508;18.118;2023-02-21T14:49:58;246.68;;;95.95;;
23310;SDS011;11828;51.508;18.118;2023-02-21T14:53:03;241.73;;;81.00;;
23310;SDS011;11828;51.508;18.118;2023-02-21T14:55:59;238.75;;;82.20;;
23310;SDS011;11828;51.508;18.118;2023-02-21T15:12:46;236.48;;;79.95;;
23310;SDS011;11828;51.508;18.118;2023-02-21T15:15:17;237.60;;;80.28;;
23310;SDS011;11828;51.508;18.118;2023-02-21T15:17:59;231.50;;;77.95;;
23310;SDS011;11828;51.508;18.118;2023-02-21T15:20:33;226.10;;;76.15;;
23310;SDS011;11828;51.508;18.118;2023-02-21T15:25:34;237.98;;;80.82;;
23310;SDS011;11828;51.508;18.118;2023-02-21T15:28:02;234.43;;;81.53;;
23310;SDS011;11828;51.508;18.118;2023-02-21T15:30:33;236.60;;;79.55;;
23310;SDS011;11828;51.508;18.118;2023-02-21T15:35:32;239.05;;;81.03;;
23310;SDS011;11828;51.508;18.118;2023-02-21T15:38:17;230.68;;;78.32;;
23310;SDS011;11828;51.508;18.118;2023-02-21T15:40:53;233.25;;;82.15;;
23310;SDS011;11828;51.508;18.118;2023-02-21T15:43:40;229.57;;;80.00;;
23310;SDS011;11828;51.508;18.118;2023-02-21T15:46:24;233.25;;;77.80;;
23310;SDS011;11828;51.508;18.118;2023-02-21T15:48:58;232.05;;;78.32;;
23310;SDS011;11828;51.508;18.118;2023-02-21T15:51:27;234.55;;;76.75;;
23310;SDS011;11828;51.508;18.118;2023-02-21T15:56:42;227.90;;;76.47;;
23310;SDS011;11828;51.508;18.118;2023-02-21T15:59:19;234.88;;;84.50;;
23310;SDS011;11828;51.508;18.118;2023-02-21T16:04:41;235.02;;;78.22;;
23310;SDS011;11828;51.508;18.118;2023-02-21T16:10:03;224.50;;;77.10;;
23310;SDS011;11828;51.508;18.118;2023-02-21T16:12:39;240.98;;;78.47;;
23310;SDS011;11828;51.508;18.118;2023-02-21T16:18:00;248.52;;;81.13;;
23310;SDS011;11828;51.508;18.118;2023-02-21T16:20:37;236.55;;;78.72;;
23310;SDS011;11828;51.508;18.118;2023-02-21T16:25:57;231.88;;;79.25;;
23310;SDS011;11828;51.508;18.118;2023-02-21T16:28:31;233.73;;;76.57;;
23310;SDS011;11828;51.508;18.118;2023-02-21T16:30:58;241.68;;;80.13;;
23310;SDS011;11828;51.508;18.118;2023-02-21T16:33:26;231.63;;;80.30;;
23310;SDS011;11828;51.508;18.118;2023-02-21T16:35:54;230.32;;;87.72;;
23310;SDS011;11828;51.508;18.118;2023-02-21T16:38:22;232.43;;;77.57;;
23310;SDS011;11828;51.508;18.118;2023-02-21T16:40:50;234.30;;;90.20;;
23310;SDS011;11828;51.508;18.118;2023-02-21T16:45:44;228.40;;;78.90;;
23310;SDS011;11828;51.508;18.118;2023-02-21T16:48:23;230.93;;;91.35;;
23310;SDS011;11828;51.508;18.118;2023-02-21T16:50:57;228.13;;;88.15;;
23310;SDS011;11828;51.508;18.118;2023-02-21T16:53:28;224.00;;;78.07;;
23310;SDS011;11828;51.508;18.118;2023-02-21T16:55:54;229.10;;;91.13;;
23310;SDS011;11828;51.508;18.118;2023-02-21T17:01:17;231.75;;;78.07;;
23310;SDS011;11828;51.508;18.118;2023-02-21T17:03:51;233.23;;;78.03;;
23310;SDS011;11828;51.508;18.118;2023-02-21T17:06:18;248.35;;;78.43;;
23310;SDS011;11828;51.508;18.118;2023-02-21T17:08:47;232.32;;;84.72;;
23310;SDS011;11828;51.508;18.118;2023-02-21T17:11:14;252.73;;;83.35;;
23310;SDS011;11828;51.508;18.118;2023-02-21T17:13:40;227.82;;;77.30;;
23310;SDS011;11828;51.508;18.118;2023-02-21T17:16:07;228.30;;;80.82;;
23310;SDS011;11828;51.508;18.118;2023-02-21T17:18:34;240.07;;;79.78;;
23310;SDS011;11828;51.508;18.118;2023-02-21T17:21:01;235.75;;;79.13;;
23310;SDS011;11828;51.508;18.118;2023-02-21T17:23:28;232.68;;;80.75;;
23310;SDS011;11828;51.508;18.118;2023-02-21T17:25:54;236.73;;;93.80;;
23310;SDS011;11828;51.508;18.118;2023-02-21T17:28:20;230.15;;;77.68;;
23310;SDS011;11828;51.508;18.118;2023-02-21T17:30:46;232.60;;;86.65;;
23310;SDS011;11828;51.508;18.118;2023-02-21T17:33:13;231.75;;;93.60;;
23310;SDS011;11828;51.508;18.118;2023-02-21T17:35:40;233.73;;;86.75;;
23310;SDS011;11828;51.508;18.118;2023-02-21T17:38:06;228.65;;;78.25;;
23310;SDS011;11828;51.508;18.118;2023-02-21T17:40:32;227.30;;;78.22;;
23310;SDS011;11828;51.508;18.118;2023-02-21T17:42:58;226.23;;;78.05;;
23310;SDS011;11828;51.508;18.118;2023-02-21T17:45:24;236.93;;;97.05;;
23310;SDS011;11828;51.508;18.118;2023-02-21T17:47:51;246.02;;;96.00;;
23310;SDS011;11828;51.508;18.118;2023-02-21T17:50:19;238.85;;;78.90;;
23310;SDS011;11828;51.508;18.118;2023-02-21T17:52:45;238.15;;;78.22;;
23310;SDS011;11828;51.508;18.118;2023-02-21T17:55:17;251.02;;;89.25;;